Time;durP1;ratioP1;P1;durP2;ratioP2;P2;SDS_P1;SDS_P2;PMS_P1;PMS_P2;Temp;Humidity;BMP_temperature;BMP_pressure;BME280_temperature;BME280_humidity;BME280_pressure;Samples;Min_cycle;Max_cycle;Signal;HPM_P1;HPM_P2
2022/01/02 00:00:17;;;;;;;15.98;9.70;;;12.30;99.90;;;;;;4996008;28;20030;-74
2022/01/02 00:02:49;;;;;;;14.35;9.55;;;12.30;99.90;;;;;;4996172;28;20030;-74
2022/01/02 00:05:20;;;;;;;19.58;9.80;;;12.30;99.90;;;;;;4995665;28;20395;-74
2022/01/02 00:08:11;;;;;;;16.45;8.93;;;12.30;99.90;;;;;;4996158;28;20031;-74
2022/01/02 00:10:46;;;;;;;15.85;9.15;;;12.30;99.90;;;;;;4995432;28;20459;-74
2022/01/02 00:13:30;;;;;;;16.67;9.82;;;12.30;99.90;;;;;;4995745;28;20029;-74
2022/01/02 00:15:56;;;;;;;16.48;10.05;;;12.40;99.90;;;;;;4993895;28;20465;-74
2022/01/02 00:18:26;;;;;;;13.85;9.80;;;12.40;99.90;;;;;;4995345;28;20018;-74
2022/01/02 00:20:53;;;;;;;15.77;9.25;;;12.30;99.90;;;;;;4995293;28;20019;-74
2022/01/02 00:23:23;;;;;;;15.75;8.80;;;12.40;99.90;;;;;;4995244;28;20038;-74
2022/01/02 00:25:53;;;;;;;14.23;8.35;;;12.40;99.90;;;;;;4995227;28;20096;-74
2022/01/02 00:28:19;;;;;;;15.50;8.57;;;12.40;99.90;;;;;;4995161;28;20064;-74
2022/01/02 00:30:46;;;;;;;15.63;8.13;;;12.30;99.90;;;;;;4995585;28;20066;-74
2022/01/02 00:33:12;;;;;;;15.20;8.40;;;12.30;99.90;;;;;;4995307;28;20482;-74
2022/01/02 00:35:38;;;;;;;16.58;8.68;;;12.40;99.90;;;;;;4995015;28;20050;-74
2022/01/02 00:38:15;;;;;;;14.65;9.13;;;12.40;99.90;;;;;;4994993;28;20026;-74
2022/01/02 00:40:45;;;;;;;19.38;8.43;;;12.50;99.90;;;;;;4995216;28;20027;-75
2022/01/02 00:43:16;;;;;;;21.07;9.57;;;12.50;99.90;;;;;;4993616;28;20434;-74
2022/01/02 00:45:46;;;;;;;13.77;8.35;;;12.50;99.90;;;;;;4994453;28;20281;-74
2022/01/02 00:48:22;;;;;;;15.32;10.00;;;12.40;99.90;;;;;;4993335;28;20402;-74
2022/01/02 00:50:51;;;;;;;16.80;10.15;;;12.40;99.90;;;;;;4994378;28;20046;-74
2022/01/02 00:53:19;;;;;;;11.98;8.35;;;12.40;99.90;;;;;;4994942;28;20422;-74
2022/01/02 00:55:47;;;;;;;17.75;9.48;;;12.40;99.90;;;;;;4994931;28;20026;-75
2022/01/02 00:58:16;;;;;;;14.95;8.52;;;12.30;99.90;;;;;;4994652;28;20019;-74
2022/01/02 01:00:49;;;;;;;17.13;9.27;;;12.30;99.90;;;;;;4994848;28;20081;-75
2022/01/02 01:03:28;;;;;;;16.67;9.63;;;12.30;99.90;;;;;;4994873;28;20467;-75
2022/01/02 01:05:55;;;;;;;13.63;8.38;;;12.40;99.90;;;;;;4994537;28;20030;-74
2022/01/02 01:08:23;;;;;;;14.60;8.70;;;12.40;99.90;;;;;;4994696;28;20034;-74
2022/01/02 01:10:49;;;;;;;14.05;9.52;;;12.40;99.90;;;;;;4994301;28;20033;-74
2022/01/02 01:13:15;;;;;;;18.17;7.93;;;12.50;99.90;;;;;;4994354;28;20026;-74
2022/01/02 01:15:42;;;;;;;16.98;9.18;;;12.50;99.90;;;;;;4994288;28;20029;-74
2022/01/02 01:18:07;;;;;;;13.55;8.48;;;12.50;99.90;;;;;;4994267;28;20027;-74
2022/01/02 01:20:41;;;;;;;14.75;8.85;;;12.50;99.90;;;;;;4994391;28;20026;-75
2022/01/02 01:23:07;;;;;;;16.33;8.32;;;12.50;99.90;;;;;;4994776;28;20084;-74
2022/01/02 01:25:33;;;;;;;16.85;7.38;;;12.50;99.90;;;;;;4994186;28;20026;-74
2022/01/02 01:27:59;;;;;;;13.90;7.43;;;12.50;99.90;;;;;;4994124;28;20028;-75
2022/01/02 01:30:27;;;;;;;15.73;9.00;;;12.50;99.90;;;;;;4994564;28;20077;-74
2022/01/02 01:32:53;;;;;;;16.55;7.55;;;12.40;99.90;;;;;;4992775;28;20435;-74
2022/01/02 01:35:21;;;;;;;12.35;7.28;;;12.40;99.90;;;;;;4994039;28;20072;-74
2022/01/02 01:37:46;;;;;;;13.45;7.57;;;12.40;99.90;;;;;;4994037;28;20053;-74
2022/01/02 01:40:14;;;;;;;15.98;8.30;;;12.40;99.90;;;;;;4993933;28;20491;-74
2022/01/02 01:42:43;;;;;;;18.10;8.45;;;12.40;99.90;;;;;;4993942;28;20023;-74
2022/01/02 01:47:49;;;;;;;14.70;7.88;;;12.50;99.90;;;;;;4994214;28;20041;-74
2022/01/02 01:50:16;;;;;;;14.93;8.38;;;12.50;99.90;;;;;;4994385;28;20118;-74
2022/01/02 01:52:42;;;;;;;13.57;7.43;;;12.50;99.90;;;;;;4994290;28;20073;-74
2022/01/02 01:55:08;;;;;;;16.90;7.80;;;12.40;99.90;;;;;;4993804;28;20457;-74
2022/01/02 01:57:34;;;;;;;15.20;7.53;;;12.40;99.90;;;;;;4994074;28;20057;-73
2022/01/02 02:00:09;;;;;;;17.08;8.75;;;12.40;99.90;;;;;;4994031;28;20030;-74
2022/01/02 02:02:35;;;;;;;16.60;7.45;;;12.40;99.90;;;;;;4994260;28;20046;-74
2022/01/02 02:05:00;;;;;;;18.38;8.00;;;12.40;99.90;;;;;;4997846;28;20049;-74
2022/01/02 02:07:27;;;;;;;14.00;6.65;;;12.40;99.90;;;;;;4997752;28;20550;-74
2022/01/02 02:12:25;;;;;;;18.00;7.82;;;12.40;99.90;;;;;;4997437;28;20037;-74
2022/01/02 02:14:51;;;;;;;14.88;8.32;;;12.30;99.90;;;;;;4997636;28;20067;-74
2022/01/02 02:17:17;;;;;;;18.42;7.22;;;12.40;99.90;;;;;;4997599;28;20440;-74
2022/01/02 02:19:42;;;;;;;14.75;6.47;;;12.40;99.90;;;;;;4997522;28;20026;-74
2022/01/02 02:22:08;;;;;;;12.82;6.90;;;12.30;99.90;;;;;;4997760;28;20239;-74
2022/01/02 02:24:34;;;;;;;14.15;6.90;;;12.30;99.90;;;;;;4997691;28;20018;-74
2022/01/02 02:27:01;;;;;;;14.27;6.88;;;12.30;99.90;;;;;;4997715;28;20038;-74
2022/01/02 02:29:26;;;;;;;19.73;7.25;;;12.30;99.90;;;;;;4997333;28;20033;-74
2022/01/02 02:31:54;;;;;;;13.93;6.53;;;12.30;99.90;;;;;;4997317;28;20475;-75
2022/01/02 02:34:20;;;;;;;14.18;6.40;;;12.30;99.90;;;;;;4997277;28;20085;-74
2022/01/02 02:36:45;;;;;;;18.73;7.60;;;12.30;99.90;;;;;;4997806;28;20061;-74
2022/01/02 02:39:11;;;;;;;15.57;7.00;;;12.30;99.90;;;;;;4997475;28;20081;-74
2022/01/02 02:41:38;;;;;;;20.15;7.13;;;12.30;99.90;;;;;;4997069;28;20022;-74
2022/01/02 02:44:15;;;;;;;16.83;6.32;;;12.40;99.90;;;;;;4997116;28;20085;-74
2022/01/02 02:49:25;;;;;;;14.57;6.45;;;12.30;99.90;;;;;;4996693;28;20029;-74
2022/01/02 02:52:03;;;;;;;15.85;6.97;;;12.30;99.90;;;;;;4996994;28;20035;-74
2022/01/02 02:54:31;;;;;;;16.48;5.35;;;12.40;99.90;;;;;;4995426;28;20033;-74
2022/01/02 02:56:59;;;;;;;14.00;6.65;;;12.40;99.90;;;;;;4996894;28;20106;-74
2022/01/02 02:59:30;;;;;;;16.80;7.25;;;12.40;99.90;;;;;;4996905;28;20023;-74
2022/01/02 03:01:56;;;;;;;13.65;5.72;;;12.50;99.90;;;;;;4995531;28;20033;-75
2022/01/02 03:04:22;;;;;;;15.30;5.90;;;12.50;99.90;;;;;;4996721;28;20031;-74
2022/01/02 03:06:48;;;;;;;17.35;6.07;;;12.60;99.90;;;;;;4996687;28;20033;-74
2022/01/02 03:09:17;;;;;;;13.55;6.00;;;12.60;99.90;;;;;;4996604;28;20097;-73
2022/01/02 03:11:42;;;;;;;11.85;5.60;;;12.70;99.90;;;;;;4996621;28;20018;-74
2022/01/02 03:14:11;;;;;;;12.27;5.65;;;12.70;99.90;;;;;;4994319;28;20025;-75
2022/01/02 03:16:37;;;;;;;12.27;5.57;;;12.70;99.90;;;;;;4995103;28;20054;-75
2022/01/02 03:19:03;;;;;;;17.50;6.28;;;12.80;99.90;;;;;;4996751;28;20053;-74
2022/01/02 03:21:29;;;;;;;13.70;5.57;;;12.80;99.90;;;;;;4996688;28;20498;-74
2022/01/02 03:23:55;;;;;;;14.48;5.18;;;12.80;99.90;;;;;;4996690;28;20026;-73
2022/01/02 03:26:20;;;;;;;14.18;6.13;;;12.80;99.90;;;;;;4996615;28;20485;-74
2022/01/02 03:28:46;;;;;;;11.98;5.22;;;12.80;99.90;;;;;;4996262;28;20060;-75
2022/01/02 03:31:12;;;;;;;19.63;6.03;;;12.80;99.90;;;;;;4996437;28;20105;-74
2022/01/02 03:33:38;;;;;;;14.02;5.05;;;12.90;99.90;;;;;;4996223;28;20053;-74
2022/01/02 03:36:05;;;;;;;14.55;5.20;;;12.90;99.90;;;;;;4996418;28;20084;-74
2022/01/02 03:38:31;;;;;;;16.33;5.80;;;12.90;99.90;;;;;;4996073;28;20018;-75
2022/01/02 03:40:57;;;;;;;12.15;5.20;;;12.90;99.90;;;;;;4996043;28;20070;-74
2022/01/02 03:43:22;;;;;;;13.00;4.95;;;12.90;99.90;;;;;;4996019;28;20585;-75
2022/01/02 03:45:48;;;;;;;15.70;4.88;;;12.90;99.90;;;;;;4995591;28;20050;-74
2022/01/02 03:48:14;;;;;;;11.70;5.28;;;13.00;99.90;;;;;;4995923;28;20026;-74
2022/01/02 03:50:40;;;;;;;16.58;4.88;;;13.00;99.90;;;;;;4995796;28;20034;-75
2022/01/02 03:53:06;;;;;;;10.95;4.47;;;12.90;99.90;;;;;;4995850;28;20027;-74
2022/01/02 03:55:33;;;;;;;12.20;4.82;;;13.00;99.90;;;;;;4995759;28;20029;-74
2022/01/02 03:57:58;;;;;;;10.45;3.90;;;13.00;99.90;;;;;;4996034;28;20037;-75
2022/01/02 04:00:24;;;;;;;13.50;4.18;;;13.00;99.90;;;;;;4995935;28;20471;-75
2022/01/02 04:02:50;;;;;;;10.43;3.95;;;13.00;99.90;;;;;;4995659;28;20435;-74
2022/01/02 04:05:16;;;;;;;11.55;4.68;;;13.00;99.90;;;;;;4995921;28;20034;-75
2022/01/02 04:07:43;;;;;;;12.50;4.40;;;13.00;99.90;;;;;;4994276;28;20073;-74
2022/01/02 04:10:13;;;;;;;11.30;4.30;;;13.10;99.90;;;;;;4995476;28;20055;-74
2022/01/02 04:12:39;;;;;;;11.13;4.65;;;13.10;99.90;;;;;;4994179;28;20033;-74
2022/01/02 04:15:07;;;;;;;12.60;3.95;;;13.00;99.90;;;;;;4995405;28;20031;-74
2022/01/02 04:17:33;;;;;;;9.82;4.00;;;13.00;99.90;;;;;;4995366;28;20438;-74
2022/01/02 04:20:04;;;;;;;9.32;3.72;;;13.00;99.90;;;;;;4995613;28;20109;-74
2022/01/02 04:22:29;;;;;;;9.38;3.63;;;13.00;99.90;;;;;;4995372;28;20027;-74
2022/01/02 04:24:55;;;;;;;9.60;3.78;;;13.00;99.90;;;;;;4995512;28;20034;-74
2022/01/02 04:27:22;;;;;;;11.93;4.80;;;13.00;99.90;;;;;;4994878;28;20058;-74
2022/01/02 04:29:47;;;;;;;11.57;4.22;;;13.00;99.90;;;;;;4995366;28;20110;-74
2022/01/02 04:32:14;;;;;;;9.82;3.42;;;13.00;99.90;;;;;;4995138;28;20097;-74
2022/01/02 04:34:40;;;;;;;11.40;3.45;;;13.00;99.90;;;;;;4995620;28;20022;-74
2022/01/02 04:37:06;;;;;;;10.70;3.65;;;13.00;99.90;;;;;;4995295;28;20038;-74
2022/01/02 04:39:33;;;;;;;12.65;3.58;;;13.00;99.90;;;;;;4995565;28;20024;-75
2022/01/02 04:41:59;;;;;;;10.40;2.95;;;13.00;99.90;;;;;;4994891;28;20025;-74
2022/01/02 04:44:24;;;;;;;11.52;4.32;;;13.00;99.90;;;;;;4995055;28;20156;-74
2022/01/02 04:46:50;;;;;;;9.32;3.50;;;12.90;99.90;;;;;;4995162;28;20065;-74
2022/01/02 04:49:16;;;;;;;16.08;3.75;;;12.90;99.90;;;;;;4994735;28;20093;-75
2022/01/02 04:51:41;;;;;;;8.20;2.63;;;12.90;99.90;;;;;;4995037;28;20474;-74
2022/01/02 04:54:07;;;;;;;14.43;3.55;;;12.90;99.90;;;;;;4994690;28;20034;-74
2022/01/02 04:56:33;;;;;;;13.90;4.18;;;12.90;99.90;;;;;;4994637;28;20110;-75
2022/01/02 04:58:58;;;;;;;12.68;3.40;;;12.90;99.90;;;;;;4994890;28;20030;-74
2022/01/02 05:01:24;;;;;;;16.20;3.65;;;12.90;99.90;;;;;;4994853;28;20077;-74
2022/01/02 05:03:49;;;;;;;12.73;2.90;;;12.90;99.90;;;;;;4994801;28;20110;-74
2022/01/02 05:06:15;;;;;;;15.77;4.03;;;13.00;99.90;;;;;;4994552;28;20034;-74
2022/01/02 05:08:45;;;;;;;16.13;3.53;;;13.00;99.90;;;;;;4994486;28;20105;-74
2022/01/02 05:11:10;;;;;;;12.60;3.17;;;13.00;99.90;;;;;;4994347;28;20029;-74
2022/01/02 05:13:36;;;;;;;13.05;3.25;;;13.00;99.90;;;;;;4994639;28;20022;-73
2022/01/02 05:16:02;;;;;;;15.60;4.05;;;13.00;99.90;;;;;;4994360;28;20029;-75
2022/01/02 05:18:28;;;;;;;18.85;4.45;;;13.00;99.90;;;;;;4994327;28;20029;-75
2022/01/02 05:20:53;;;;;;;12.10;3.20;;;13.00;99.90;;;;;;4994522;28;20154;-74
2022/01/02 05:23:21;;;;;;;13.27;3.58;;;13.00;99.90;;;;;;4994515;28;20474;-74
2022/01/02 05:25:47;;;;;;;12.23;3.00;;;13.00;99.90;;;;;;4994163;28;20026;-74
2022/01/02 05:28:13;;;;;;;12.07;3.65;;;13.00;99.90;;;;;;4994420;28;20084;-74
2022/01/02 05:30:40;;;;;;;15.77;3.65;;;13.00;99.90;;;;;;4994047;28;20034;-74
2022/01/02 05:33:05;;;;;;;14.98;2.90;;;13.00;99.90;;;;;;4994134;28;20479;-74
2022/01/02 05:35:31;;;;;;;14.25;3.05;;;13.00;99.90;;;;;;4994065;28;20033;-74
2022/01/02 05:38:01;;;;;;;12.23;3.00;;;13.00;99.90;;;;;;4993428;28;20394;-74
2022/01/02 05:40:32;;;;;;;16.33;3.92;;;13.00;99.90;;;;;;4993977;28;20022;-74
2022/01/02 05:42:58;;;;;;;16.63;3.38;;;13.00;99.90;;;;;;4994556;28;20064;-75
2022/01/02 05:45:24;;;;;;;12.75;2.75;;;13.00;99.90;;;;;;4993756;28;20050;-74
2022/01/02 05:47:50;;;;;;;14.55;2.88;;;13.00;99.90;;;;;;4994182;28;20029;-74
2022/01/02 05:50:15;;;;;;;14.30;2.58;;;13.10;99.90;;;;;;4992567;28;20487;-74
2022/01/02 05:52:41;;;;;;;15.38;3.38;;;13.00;99.90;;;;;;4993851;28;20046;-75
2022/01/02 05:55:07;;;;;;;13.13;2.92;;;13.10;99.90;;;;;;4993889;28;20048;-75
2022/01/02 05:57:33;;;;;;;15.05;3.65;;;13.10;99.90;;;;;;4994083;28;20025;-74
2022/01/02 05:59:58;;;;;;;14.70;3.55;;;13.10;99.90;;;;;;4993785;28;20482;-74
2022/01/02 06:02:24;;;;;;;13.02;3.08;;;13.10;99.90;;;;;;4993784;28;20057;-74
2022/01/02 06:04:50;;;;;;;10.40;2.72;;;13.10;99.90;;;;;;4994323;28;20023;-74
2022/01/02 06:07:16;;;;;;;15.43;3.20;;;13.10;99.90;;;;;;4994025;28;20030;-75
2022/01/02 06:09:42;;;;;;;13.18;2.60;;;13.10;99.90;;;;;;4993912;28;20034;-75
2022/01/02 06:12:08;;;;;;;9.93;3.25;;;13.10;99.90;;;;;;4993707;28;20030;-74
2022/01/02 06:14:34;;;;;;;14.75;3.75;;;13.10;99.90;;;;;;4993998;28;20027;-74
2022/01/02 06:17:00;;;;;;;11.63;2.85;;;13.10;99.90;;;;;;4993688;28;20023;-74
2022/01/02 06:19:26;;;;;;;20.25;3.90;;;13.10;99.90;;;;;;4993685;28;20045;-75
2022/01/02 06:21:52;;;;;;;15.23;3.97;;;13.10;99.90;;;;;;4992432;28;20418;-75
2022/01/02 06:24:17;;;;;;;14.43;3.13;;;13.10;99.90;;;;;;4993929;28;20049;-75
2022/01/02 06:26:43;;;;;;;12.00;2.60;;;13.10;99.90;;;;;;4993884;28;20550;-75
2022/01/02 06:29:09;;;;;;;13.82;3.53;;;13.10;99.90;;;;;;4993556;28;20073;-74
2022/01/02 06:31:34;;;;;;;14.00;2.40;;;13.00;99.90;;;;;;4993520;28;20505;-74
2022/01/02 06:34:00;;;;;;;8.52;2.67;;;13.00;99.90;;;;;;4993547;28;20061;-74
2022/01/02 06:36:26;;;;;;;15.10;3.08;;;13.00;99.90;;;;;;4993512;28;20023;-75
2022/01/02 06:38:52;;;;;;;15.55;3.22;;;13.00;99.90;;;;;;4993531;28;20435;-74
2022/01/02 06:41:17;;;;;;;8.75;2.47;;;13.00;99.90;;;;;;4993511;28;20066;-74
2022/01/02 06:43:43;;;;;;;14.00;2.70;;;13.00;99.90;;;;;;4993496;28;20068;-74
2022/01/02 06:46:09;;;;;;;16.67;3.40;;;13.00;99.90;;;;;;4993742;28;20038;-74
2022/01/02 06:48:35;;;;;;;12.05;3.13;;;13.00;99.90;;;;;;4993805;28;20533;-74
2022/01/02 06:51:01;;;;;;;28.17;11.02;;;13.00;99.90;;;;;;4996933;28;20176;-75
2022/01/02 06:53:27;;;;;;;14.82;4.35;;;13.00;99.90;;;;;;4997252;28;20113;-75
2022/01/02 06:55:53;;;;;;;12.43;3.90;;;13.00;99.90;;;;;;4996930;28;20042;-74
2022/01/02 06:58:19;;;;;;;13.93;3.30;;;13.00;99.90;;;;;;4996890;28;20508;-75
2022/01/02 07:00:44;;;;;;;16.55;3.33;;;13.00;99.90;;;;;;4996814;28;20034;-75
2022/01/02 07:03:10;;;;;;;15.18;4.60;;;13.00;99.90;;;;;;4997039;28;20025;-74
2022/01/02 07:05:36;;;;;;;17.40;3.88;;;13.10;99.90;;;;;;4996762;28;20064;-75
2022/01/02 07:08:02;;;;;;;15.40;4.22;;;13.00;99.90;;;;;;4995410;28;20372;-74
2022/01/02 07:10:28;;;;;;;16.63;3.38;;;13.10;99.90;;;;;;4996572;28;20085;-75
2022/01/02 07:12:54;;;;;;;13.13;4.07;;;13.10;99.90;;;;;;4996870;28;20094;-74
2022/01/02 07:15:20;;;;;;;15.20;3.45;;;13.10;99.90;;;;;;4996575;28;20054;-76
2022/01/02 07:17:46;;;;;;;13.55;3.33;;;13.10;99.90;;;;;;4996556;28;20019;-74
2022/01/02 07:20:12;;;;;;;15.07;3.30;;;13.10;99.90;;;;;;4996789;28;20088;-75
2022/01/02 07:22:40;;;;;;;14.68;3.85;;;13.10;99.90;;;;;;4996409;28;20394;-75
2022/01/02 07:25:06;;;;;;;13.57;3.13;;;13.00;99.90;;;;;;4995139;28;20395;-74
2022/01/02 07:27:32;;;;;;;11.88;3.88;;;13.10;99.90;;;;;;4996816;28;20030;-75
2022/01/02 07:29:59;;;;;;;14.02;4.43;;;13.10;99.90;;;;;;4996213;28;20487;-74
2022/01/02 07:32:25;;;;;;;18.90;4.70;;;13.10;99.90;;;;;;4996531;28;20041;-75
2022/01/02 07:34:51;;;;;;;12.20;3.67;;;13.10;99.90;;;;;;4996497;28;20065;-74
2022/01/02 07:37:18;;;;;;;18.10;5.28;;;13.00;99.90;;;;;;4996427;28;20058;-75
2022/01/02 07:39:44;;;;;;;12.13;3.25;;;13.00;99.90;;;;;;4996141;28;20029;-75
2022/01/02 07:42:10;;;;;;;14.07;3.22;;;13.10;99.90;;;;;;4996016;28;20034;-75
2022/01/02 07:44:37;;;;;;;13.27;3.08;;;13.10;99.90;;;;;;4996180;28;20043;-74
2022/01/02 07:47:04;;;;;;;18.58;4.65;;;13.10;99.90;;;;;;4996005;28;20026;-75
2022/01/02 07:49:30;;;;;;;10.65;2.92;;;13.10;99.90;;;;;;4995795;28;20535;-74
2022/01/02 07:51:55;;;;;;;14.27;2.97;;;13.10;99.90;;;;;;4995904;28;20019;-74
2022/01/02 07:54:21;;;;;;;16.85;3.63;;;13.10;99.90;;;;;;4995866;28;20073;-75
2022/01/02 07:56:47;;;;;;;15.55;3.03;;;13.10;99.90;;;;;;4995845;28;20525;-74
2022/01/02 07:59:12;;;;;;;15.43;3.35;;;13.10;99.90;;;;;;4995744;28;20030;-74
2022/01/02 08:01:38;;;;;;;11.95;2.97;;;13.10;99.90;;;;;;4995617;28;20069;-75
2022/01/02 08:04:04;;;;;;;6.93;2.38;;;13.20;99.90;;;;;;4995973;28;20030;-75
2022/01/02 08:06:30;;;;;;;17.58;3.65;;;13.10;99.90;;;;;;4995633;28;20041;-74
2022/01/02 08:08:55;;;;;;;12.85;2.97;;;13.20;99.90;;;;;;4995913;28;20459;-75
2022/01/02 08:11:21;;;;;;;10.52;2.60;;;13.20;99.90;;;;;;4995472;28;20018;-74
2022/01/02 08:13:48;;;;;;;15.35;3.17;;;13.20;99.90;;;;;;4994301;28;20030;-74
2022/01/02 08:16:14;;;;;;;12.30;2.92;;;13.20;99.90;;;;;;4995431;28;20054;-75
2022/01/02 08:18:41;;;;;;;12.73;2.97;;;13.20;99.90;;;;;;4995426;28;20037;-74
2022/01/02 08:21:07;;;;;;;18.65;3.33;;;13.10;99.90;;;;;;4995173;28;20550;-75
2022/01/02 08:23:34;;;;;;;11.75;3.53;;;13.10;99.90;;;;;;4995270;28;20018;-74
2022/01/02 08:26:00;;;;;;;16.67;4.80;;;13.10;99.90;;;;;;4995214;28;20449;-75
2022/01/02 08:28:25;;;;;;;22.83;6.65;;;13.10;99.90;;;;;;4995456;28;20026;-75
2022/01/02 08:30:51;;;;;;;21.52;4.47;;;13.20;99.90;;;;;;4995088;28;20116;-75
2022/01/02 08:33:17;;;;;;;20.05;4.18;;;13.10;99.90;;;;;;4995435;28;20406;-74
2022/01/02 08:35:44;;;;;;;16.58;3.90;;;13.10;99.90;;;;;;4995397;28;20023;-74
2022/01/02 08:38:10;;;;;;;15.13;2.80;;;13.10;99.90;;;;;;4995255;28;20029;-74
2022/01/02 08:40:38;;;;;;;16.10;3.53;;;13.10;99.90;;;;;;4995111;28;20510;-75
2022/01/02 08:43:04;;;;;;;13.13;3.10;;;13.10;99.90;;;;;;4994915;28;20061;-74
2022/01/02 08:45:30;;;;;;;13.55;2.80;;;13.10;99.90;;;;;;4994490;28;20086;-74
2022/01/02 08:47:56;;;;;;;18.85;3.60;;;13.20;99.90;;;;;;4995147;28;20054;-75
2022/01/02 08:50:21;;;;;;;18.33;3.15;;;13.10;99.90;;;;;;4994749;28;20034;-74
2022/01/02 08:52:47;;;;;;;16.20;3.35;;;13.20;99.90;;;;;;4993509;28;20495;-75
2022/01/02 08:55:14;;;;;;;18.15;3.92;;;13.20;99.90;;;;;;4994960;28;20033;-75
2022/01/02 08:57:39;;;;;;;18.48;3.63;;;13.10;99.90;;;;;;4994681;28;20037;-74
2022/01/02 09:00:06;;;;;;;23.60;4.32;;;13.10;99.90;;;;;;4994668;28;20475;-74
2022/01/02 09:02:31;;;;;;;15.40;3.88;;;13.20;99.90;;;;;;4994486;28;20121;-74
2022/01/02 09:04:57;;;;;;;15.05;4.18;;;13.20;99.90;;;;;;4994585;28;20101;-74
2022/01/02 09:07:23;;;;;;;19.02;3.70;;;13.20;99.90;;;;;;4994771;28;20026;-74
2022/01/02 09:09:48;;;;;;;19.42;3.20;;;13.20;99.90;;;;;;4994287;28;20383;-75
2022/01/02 09:12:15;;;;;;;23.42;4.65;;;13.20;99.90;;;;;;4993905;28;20022;-74
2022/01/02 09:14:41;;;;;;;16.17;3.35;;;13.30;99.90;;;;;;4994343;28;20022;-74
2022/01/02 09:17:08;;;;;;;15.60;3.13;;;13.30;99.90;;;;;;4994187;28;20435;-74
2022/01/02 09:19:33;;;;;;;20.45;3.50;;;13.30;99.90;;;;;;4994581;28;20527;-75
2022/01/02 09:21:59;;;;;;;16.63;3.50;;;13.30;99.90;;;;;;4994253;28;20050;-74
2022/01/02 09:24:25;;;;;;;15.80;3.13;;;13.40;99.90;;;;;;4994245;28;20023;-74
2022/01/02 09:26:51;;;;;;;16.83;3.63;;;13.30;99.90;;;;;;4994194;28;20453;-74
2022/01/02 09:29:16;;;;;;;19.30;3.38;;;13.30;99.90;;;;;;4994131;28;20502;-74
2022/01/02 09:31:42;;;;;;;16.38;3.40;;;13.30;99.90;;;;;;4994043;28;20030;-74
2022/01/02 09:34:08;;;;;;;19.35;3.25;;;13.30;99.90;;;;;;4994081;28;20029;-74
2022/01/02 09:36:34;;;;;;;17.80;3.53;;;13.30;99.90;;;;;;4994369;28;20050;-75
2022/01/02 09:39:00;;;;;;;15.70;4.25;;;13.40;99.90;;;;;;4994064;28;20138;-74
2022/01/02 09:41:25;;;;;;;19.95;3.80;;;13.40;99.90;;;;;;4993849;28;20162;-74
2022/01/02 09:43:51;;;;;;;14.20;3.67;;;13.40;99.90;;;;;;4994039;28;20089;-74
2022/01/02 09:46:22;;;;;;;21.70;3.88;;;13.50;99.90;;;;;;4994558;28;20110;-74
2022/01/02 09:48:49;;;;;;;14.50;3.25;;;13.60;99.90;;;;;;4994207;28;20034;-75
2022/01/02 09:51:18;;;;;;;25.15;3.67;;;13.60;99.90;;;;;;4993872;28;20037;-75
2022/01/02 09:53:47;;;;;;;16.85;3.35;;;13.50;99.90;;;;;;4994175;28;20387;-74
2022/01/02 09:56:14;;;;;;;16.07;3.27;;;13.50;99.90;;;;;;4993897;28;20085;-75
2022/01/02 09:58:43;;;;;;;22.13;4.28;;;13.50;99.90;;;;;;4993843;28;20461;-74
2022/01/02 10:01:18;;;;;;;18.30;3.83;;;13.50;99.90;;;;;;4993826;28;20026;-74
2022/01/02 10:03:46;;;;;;;15.27;3.03;;;13.50;99.90;;;;;;4994375;28;20045;-74
2022/01/02 10:06:13;;;;;;;13.98;2.85;;;13.50;99.90;;;;;;4993754;28;20025;-74
2022/01/02 10:08:38;;;;;;;16.30;4.18;;;13.50;99.90;;;;;;4994013;28;20109;-74
2022/01/02 10:11:11;;;;;;;14.55;3.75;;;13.50;99.90;;;;;;4993909;28;20149;-75
2022/01/02 10:13:38;;;;;;;17.85;4.10;;;13.50;99.90;;;;;;4994053;28;20109;-74
2022/01/02 10:16:17;;;;;;;18.38;3.95;;;13.40;99.90;;;;;;4992434;28;20115;-74
2022/01/02 10:18:43;;;;;;;17.77;4.05;;;13.40;99.90;;;;;;4993876;28;20124;-75
2022/01/02 10:21:10;;;;;;;13.07;3.80;;;13.50;99.90;;;;;;4993664;28;20035;-74
2022/01/02 10:23:36;;;;;;;15.93;4.25;;;13.50;99.90;;;;;;4992816;28;20033;-75
2022/01/02 10:26:03;;;;;;;14.73;3.35;;;13.50;99.90;;;;;;4997766;28;20026;-74
2022/01/02 10:28:34;;;;;;;18.58;3.78;;;13.50;99.90;;;;;;4997381;28;20088;-74
2022/01/02 10:31:06;;;;;;;21.85;6.43;;;13.50;99.90;;;;;;4997605;28;20434;-74
2022/01/02 10:33:57;;;;;;;19.90;6.22;;;13.50;99.90;;;;;;4997395;28;20076;-74
2022/01/02 10:36:26;;;;;;;;;;;13.50;99.90;;;;;;4997732;28;20022;-75
2022/01/02 10:39:19;;;;;;;17.17;3.37;;;13.60;99.90;;;;;;4997838;28;20426;-74
2022/01/02 10:41:50;;;;;;;16.05;3.35;;;13.60;99.90;;;;;;4995106;28;20506;-74
2022/01/02 10:44:31;;;;;;;25.00;5.55;;;13.70;99.90;;;;;;4997212;28;20049;-74
2022/01/02 10:47:20;;;;;;;21.05;4.18;;;13.80;99.90;;;;;;4997643;28;20030;-75
2022/01/02 10:49:49;;;;;;;19.85;3.53;;;13.80;99.90;;;;;;4997281;28;20491;-75
2022/01/02 10:52:24;;;;;;;16.75;4.20;;;13.80;99.90;;;;;;4996991;28;20084;-74
2022/01/02 10:54:50;;;;;;;18.50;5.18;;;13.80;99.90;;;;;;4997288;28;20487;-75
2022/01/02 10:57:17;;;;;;;11.98;3.30;;;13.90;99.90;;;;;;4995901;28;20061;-74
2022/01/02 10:59:44;;;;;;;17.83;3.20;;;14.00;99.90;;;;;;4997144;28;20025;-74
2022/01/02 11:02:14;;;;;;;17.30;3.63;;;14.00;99.90;;;;;;4996871;28;20058;-74
2022/01/02 11:04:56;;;;;;;14.57;4.18;;;14.00;99.90;;;;;;4996842;28;20023;-74
2022/01/02 11:07:23;;;;;;;16.00;3.55;;;14.00;99.90;;;;;;4996987;28;20041;-74
2022/01/02 11:09:54;;;;;;;20.63;4.10;;;14.00;99.90;;;;;;4996638;28;20502;-74
2022/01/02 11:12:20;;;;;;;19.50;3.53;;;14.00;99.90;;;;;;4996645;28;20030;-74
2022/01/02 11:14:48;;;;;;;17.08;3.25;;;14.10;99.90;;;;;;4996609;28;20025;-74
2022/01/02 11:17:14;;;;;;;13.88;3.33;;;14.10;99.90;;;;;;4995319;28;20495;-74
2022/01/02 11:19:40;;;;;;;15.05;3.60;;;14.10;99.90;;;;;;4996482;28;20037;-75
2022/01/02 11:22:13;;;;;;;16.23;4.40;;;14.10;99.90;;;;;;4996456;28;20022;-74
2022/01/02 11:24:47;;;;;;;16.05;3.60;;;14.10;99.90;;;;;;4996420;28;20116;-74
2022/01/02 11:27:23;;;;;;;19.75;3.22;;;14.10;99.90;;;;;;4996659;28;20080;-74
2022/01/02 11:29:49;;;;;;;20.27;4.15;;;14.10;99.90;;;;;;4996849;28;20025;-75
2022/01/02 11:32:26;;;;;;;19.90;4.20;;;14.20;99.90;;;;;;4996547;28;20053;-75
2022/01/02 11:34:53;;;;;;;19.58;3.67;;;14.20;99.90;;;;;;4995762;28;20046;-74
2022/01/02 11:37:22;;;;;;;21.17;5.20;;;14.20;99.90;;;;;;4995670;28;20506;-74
2022/01/02 11:39:59;;;;;;;15.13;4.25;;;14.20;99.90;;;;;;4996158;28;20154;-74
2022/01/02 11:42:41;;;;;;;16.00;3.90;;;14.30;99.90;;;;;;4996110;28;20039;-74
2022/01/02 11:45:09;;;;;;;14.10;4.30;;;14.20;99.90;;;;;;4995889;28;20036;-74
2022/01/02 11:47:47;;;;;;;19.42;3.88;;;14.10;99.90;;;;;;4994795;28;20022;-75
2022/01/02 11:50:30;;;;;;;16.02;3.00;;;14.10;99.90;;;;;;4996496;28;20073;-74
2022/01/02 11:53:17;;;;;;;15.23;4.13;;;14.10;99.90;;;;;;4995955;28;20475;-74
2022/01/02 11:55:45;;;;;;;18.60;4.13;;;14.20;99.90;;;;;;4995909;28;20022;-74
2022/01/02 11:58:11;;;;;;;22.00;4.53;;;14.20;99.90;;;;;;4996067;28;20076;-74
2022/01/02 12:00:48;;;;;;;15.18;4.72;;;14.20;99.90;;;;;;4995769;28;20053;-74
2022/01/02 12:03:38;;;;;;;21.60;4.25;;;14.20;99.90;;;;;;4996030;28;20023;-74
2022/01/02 12:06:19;;;;;;;18.75;3.92;;;14.20;99.90;;;;;;4995970;28;20426;-75
2022/01/02 12:08:46;;;;;;;15.98;3.90;;;14.10;99.90;;;;;;4995900;28;20026;-75
2022/01/02 12:11:30;;;;;;;22.95;4.32;;;14.10;99.90;;;;;;4995547;28;20019;-74
2022/01/02 12:14:03;;;;;;;18.15;3.72;;;14.10;99.90;;;;;;4995569;28;20414;-75
2022/01/02 12:16:40;;;;;;;25.30;6.50;;;14.10;99.90;;;;;;4995526;28;20019;-75
2022/01/02 12:19:08;;;;;;;19.17;3.67;;;14.10;99.90;;;;;;4995707;28;20018;-74
2022/01/02 12:21:34;;;;;;;20.73;4.50;;;14.10;99.90;;;;;;4995909;28;20022;-74
2022/01/02 12:24:02;;;;;;;16.73;3.92;;;14.10;99.90;;;;;;4995303;28;20027;-74
2022/01/02 12:26:34;;;;;;;18.25;4.28;;;14.20;99.90;;;;;;4995579;28;20056;-74
2022/01/02 12:29:10;;;;;;;17.73;5.22;;;14.20;99.90;;;;;;4995852;28;20034;-74
2022/01/02 12:31:44;;;;;;;24.48;4.88;;;14.20;99.90;;;;;;4993589;28;20069;-75
2022/01/02 12:34:22;;;;;;;22.70;4.13;;;14.30;99.90;;;;;;4995189;28;20031;-74
2022/01/02 12:36:51;;;;;;;17.95;3.97;;;14.30;99.90;;;;;;4995410;28;20029;-74
2022/01/02 12:39:26;;;;;;;17.40;4.05;;;14.20;99.90;;;;;;4995342;28;20030;-74
2022/01/02 12:41:52;;;;;;;24.33;4.45;;;14.20;99.90;;;;;;4993694;28;20037;-74
2022/01/02 12:44:26;;;;;;;22.27;4.93;;;14.20;99.90;;;;;;4994936;28;20050;-74
2022/01/02 12:46:54;;;;;;;15.65;3.95;;;14.30;99.90;;;;;;4995267;28;20026;-74
2022/01/02 12:49:25;;;;;;;22.30;3.85;;;14.20;99.90;;;;;;4994837;28;20069;-74